createdAt,value
2019-02-11T00:01:15.487Z,58.15
2019-02-11T00:03:44.243Z,58.11
2019-02-11T00:06:12.966Z,58.08
2019-02-11T00:08:41.847Z,58.09
2019-02-11T00:11:10.611Z,58.11
2019-02-11T00:13:39.341Z,58.12
2019-02-11T00:16:08.111Z,58.14
2019-02-11T00:18:36.846Z,58.13
2019-02-11T00:21:05.601Z,58.12
2019-02-11T00:23:34.323Z,58.12
2019-02-11T00:26:03.069Z,58.13
2019-02-11T00:28:31.822Z,58.16
2019-02-11T00:31:00.575Z,58.17
2019-02-11T00:33:29.298Z,58.21
2019-02-11T00:35:58.118Z,58.20
2019-02-11T00:38:26.954Z,58.21
2019-02-11T00:40:55.688Z,58.23
2019-02-11T00:43:24.411Z,58.26
2019-02-11T00:45:53.162Z,58.29
2019-02-11T00:48:21.891Z,58.30
2019-02-11T00:50:50.644Z,58.29
2019-02-11T00:53:19.372Z,58.32
2019-02-11T00:55:48.229Z,58.40
2019-02-11T00:58:17.041Z,58.41
2019-02-11T01:00:45.794Z,58.42
2019-02-11T01:03:14.518Z,58.47
2019-02-11T01:05:43.275Z,58.54
2019-02-11T01:08:12.000Z,58.57
2019-02-11T01:10:40.769Z,58.56
2019-02-11T01:13:09.499Z,58.58
2019-02-11T01:15:38.259Z,58.56
2019-02-11T01:18:06.998Z,58.59
2019-02-11T01:20:35.750Z,58.56
2019-02-11T01:23:04.515Z,58.61
2019-02-11T01:25:33.245Z,58.60
2019-02-11T01:28:02.034Z,58.62
2019-02-11T01:30:30.759Z,58.62
2019-02-11T01:32:59.521Z,58.61
2019-02-11T01:35:28.244Z,58.59
2019-02-11T01:37:57.001Z,58.63
2019-02-11T01:40:25.722Z,58.65
2019-02-11T01:42:54.474Z,58.66
2019-02-11T01:45:23.205Z,58.70
2019-02-11T01:47:51.982Z,58.69
2019-02-11T01:50:20.759Z,58.71
2019-02-11T01:52:49.467Z,58.70
2019-02-11T01:55:18.203Z,58.74
2019-02-11T01:57:46.951Z,58.74
2019-02-11T02:00:15.679Z,58.79
2019-02-11T02:02:44.427Z,58.81
2019-02-11T02:05:13.158Z,58.86
2019-02-11T02:07:41.923Z,58.83
2019-02-11T02:10:12.696Z,58.83
2019-02-11T02:12:41.456Z,58.89
2019-02-11T02:15:10.818Z,58.90
2019-02-11T02:17:39.575Z,58.87
2019-02-11T02:20:10.051Z,58.87
2019-02-11T02:22:38.818Z,58.94
2019-02-11T02:25:08.074Z,58.94
2019-02-11T02:27:36.855Z,58.94
2019-02-11T02:30:06.386Z,58.94
2019-02-11T02:32:35.142Z,59.00
2019-02-11T02:35:04.086Z,59.02
2019-02-11T02:37:32.842Z,59.04
2019-02-11T02:40:01.641Z,59.10
2019-02-11T02:42:30.401Z,59.09
2019-02-11T02:44:59.130Z,59.13
2019-02-11T02:47:27.970Z,59.16
2019-02-11T02:49:56.709Z,59.22
2019-02-11T02:52:25.435Z,59.21
2019-02-11T02:54:54.185Z,59.20
2019-02-11T02:57:23.160Z,59.25
2019-02-11T02:59:51.922Z,59.27
2019-02-11T03:02:20.651Z,59.30
2019-02-11T03:04:49.407Z,59.30
2019-02-11T03:07:18.131Z,59.29
2019-02-11T03:09:46.910Z,59.31
2019-02-11T03:12:15.642Z,59.32
2019-02-11T03:14:44.387Z,59.32
2019-02-11T03:17:13.110Z,59.36
2019-02-11T03:19:41.862Z,59.34
2019-02-11T03:22:10.610Z,59.37
2019-02-11T03:24:39.371Z,59.38
2019-02-11T03:27:08.238Z,59.42
2019-02-11T03:29:36.994Z,59.38
2019-02-11T03:32:05.724Z,59.43
2019-02-11T03:34:34.478Z,59.45
2019-02-11T03:37:03.318Z,59.45
2019-02-11T03:39:32.071Z,59.47
2019-02-11T03:42:00.793Z,59.45
2019-02-11T03:44:29.549Z,59.44
2019-02-11T03:46:58.344Z,59.50
2019-02-11T03:49:27.171Z,59.49
2019-02-11T03:51:55.903Z,59.54
2019-02-11T03:54:24.658Z,59.55
2019-02-11T03:56:53.392Z,59.54
2019-02-11T03:59:22.283Z,59.54
2019-02-11T04:01:51.007Z,59.57
2019-02-11T04:04:19.791Z,59.64
2019-02-11T04:06:48.511Z,59.61
2019-02-11T04:09:18.492Z,59.58
2019-02-11T04:11:47.169Z,59.60
2019-02-11T04:14:24.408Z,59.64
2019-02-11T04:16:46.414Z,59.64
2019-02-11T04:19:15.143Z,59.64
2019-02-11T04:21:43.984Z,59.62
2019-02-11T04:24:12.725Z,59.67
2019-02-11T04:26:41.479Z,59.70
2019-02-11T04:29:10.226Z,59.65
2019-02-11T04:31:38.985Z,59.69
2019-02-11T04:34:07.712Z,59.72
2019-02-11T04:36:36.461Z,59.70
2019-02-11T04:39:06.458Z,59.74
2019-02-11T04:41:35.204Z,59.70
2019-02-11T04:44:04.001Z,59.73
2019-02-11T04:46:32.758Z,59.75
2019-02-11T04:49:01.485Z,59.71
2019-02-11T04:51:30.242Z,59.71
2019-02-11T04:53:58.999Z,59.70
2019-02-11T04:56:27.752Z,59.70
2019-02-11T04:58:56.487Z,59.63
2019-02-11T05:01:25.242Z,59.67
2019-02-11T05:03:54.171Z,59.69
2019-02-11T05:06:23.030Z,59.67
2019-02-11T05:08:51.707Z,59.66
2019-02-11T05:11:20.455Z,59.71
2019-02-11T05:13:49.178Z,59.58
2019-02-11T05:16:17.927Z,59.63
2019-02-11T05:18:46.658Z,59.61
2019-02-11T05:21:15.414Z,59.57
2019-02-11T05:23:44.231Z,59.54
2019-02-11T05:26:12.990Z,59.44
2019-02-11T05:28:41.762Z,59.38
2019-02-11T05:31:10.481Z,59.28
2019-02-11T05:33:39.320Z,59.15
2019-02-11T05:36:08.043Z,59.01
2019-02-11T05:38:36.971Z,58.92
2019-02-11T05:41:05.766Z,58.83
2019-02-11T05:43:34.519Z,58.72
2019-02-11T05:46:03.253Z,58.62
2019-02-11T05:48:32.080Z,58.57
2019-02-11T05:51:00.880Z,58.49
2019-02-11T05:53:29.632Z,58.43
2019-02-11T05:55:58.444Z,58.44
2019-02-11T05:58:27.530Z,58.41
2019-02-11T06:00:56.275Z,58.37
2019-02-11T06:03:25.130Z,58.29
2019-02-11T06:05:53.847Z,58.24
2019-02-11T06:08:22.612Z,58.18
2019-02-11T06:10:51.461Z,58.10
2019-02-11T06:13:20.221Z,57.90
2019-02-11T06:15:48.951Z,57.75
2019-02-11T06:18:17.785Z,57.71
2019-02-11T06:20:46.520Z,57.69
2019-02-11T06:23:15.276Z,57.73
2019-02-11T06:25:43.999Z,57.54
2019-02-11T06:28:12.798Z,57.19
2019-02-11T06:30:41.533Z,56.99
2019-02-11T06:33:10.287Z,56.80
2019-02-11T06:35:39.088Z,56.58
2019-02-11T06:38:07.856Z,56.38
2019-02-11T06:40:36.681Z,56.35
2019-02-11T06:43:05.443Z,56.28
2019-02-11T06:45:34.253Z,56.17
2019-02-11T06:48:03.112Z,58.14
2019-02-11T06:50:31.848Z,59.62
2019-02-11T06:53:00.590Z,61.62
2019-02-11T06:55:29.424Z,62.07
2019-02-11T06:57:58.178Z,61.99
2019-02-11T07:00:26.997Z,62.21
2019-02-11T07:02:55.808Z,61.14
2019-02-11T07:05:24.714Z,60.57
2019-02-11T07:07:53.443Z,60.11
2019-02-11T07:10:22.192Z,59.97
2019-02-11T07:12:51.099Z,59.65
2019-02-11T07:15:22.063Z,59.13
2019-02-11T07:17:50.347Z,58.92
2019-02-11T07:20:19.226Z,59.04
2019-02-11T07:22:48.033Z,58.98
2019-02-11T07:25:16.854Z,58.83
2019-02-11T07:27:45.626Z,58.73
2019-02-11T07:30:14.417Z,58.48
2019-02-11T07:32:43.170Z,58.38
2019-02-11T07:35:12.013Z,58.28
2019-02-11T07:37:40.744Z,58.24
2019-02-11T07:40:09.929Z,58.25
2019-02-11T07:42:55.851Z,58.33
2019-02-11T07:45:33.259Z,58.38
2019-02-11T07:48:01.995Z,58.36
2019-02-11T07:50:30.755Z,58.23
2019-02-11T07:52:59.471Z,58.06
2019-02-11T07:55:28.251Z,57.91
2019-02-11T07:57:57.128Z,58.05
2019-02-11T08:00:25.885Z,57.99
2019-02-11T08:02:54.615Z,58.03
2019-02-11T08:05:23.451Z,58.01
2019-02-11T08:07:52.274Z,57.84
2019-02-11T08:10:21.103Z,57.50
2019-02-11T08:12:49.841Z,58.51
2019-02-11T08:15:18.782Z,58.27
2019-02-11T08:17:47.578Z,58.28
2019-02-11T08:20:16.311Z,58.00
2019-02-11T08:22:45.073Z,57.82
2019-02-11T08:25:13.817Z,57.79
2019-02-11T08:27:42.665Z,58.10
2019-02-11T08:30:11.535Z,58.45
2019-02-11T08:32:40.369Z,58.60
2019-02-11T08:35:09.232Z,58.43
2019-02-11T08:37:38.038Z,58.37
2019-02-11T08:40:07.071Z,58.59
2019-02-11T08:42:35.841Z,58.47
2019-02-11T08:45:05.502Z,58.76
2019-02-11T08:47:34.398Z,58.62
2019-02-11T08:50:03.141Z,58.82
2019-02-11T08:52:31.906Z,58.78
2019-02-11T08:55:00.797Z,58.99
2019-02-11T08:57:29.579Z,60.13
2019-02-11T08:59:58.318Z,60.12
2019-02-11T09:02:48.810Z,60.16
2019-02-11T09:05:16.777Z,59.70
2019-02-11T09:07:45.529Z,59.33
2019-02-11T09:10:14.554Z,59.32
2019-02-11T09:12:43.369Z,59.26
2019-02-11T09:15:12.148Z,59.24
2019-02-11T09:17:40.913Z,58.97
2019-02-11T09:20:10.042Z,59.14
2019-02-11T09:22:38.855Z,59.03
2019-02-11T09:25:08.829Z,58.98
2019-02-11T09:27:37.598Z,58.85
2019-02-11T09:30:08.591Z,59.34
2019-02-11T09:32:37.330Z,59.45
2019-02-11T09:35:06.496Z,59.36
2019-02-11T09:37:36.732Z,60.03
2019-02-11T09:40:06.970Z,59.76
2019-02-11T09:42:35.705Z,59.81
2019-02-11T09:45:05.280Z,59.62
2019-02-11T09:47:34.024Z,59.76
2019-02-11T09:50:18.557Z,59.75
2019-02-11T09:52:47.302Z,60.41
2019-02-11T09:55:19.124Z,61.43
2019-02-11T09:57:47.932Z,61.31
2019-02-11T10:00:16.702Z,60.53
2019-02-11T10:02:45.544Z,60.10
2019-02-11T10:05:14.362Z,60.47
2019-02-11T10:07:43.098Z,60.17
2019-02-11T10:10:11.862Z,60.19
2019-02-11T10:12:40.628Z,59.82
2019-02-11T10:15:10.545Z,59.60
2019-02-11T10:17:39.286Z,60.05
2019-02-11T10:20:09.400Z,60.10
2019-02-11T10:22:38.410Z,60.69
2019-02-11T10:25:10.775Z,61.54
2019-02-11T10:27:39.591Z,60.76
2019-02-11T10:30:10.420Z,59.03
2019-02-11T10:32:39.203Z,57.04
2019-02-11T10:35:08.636Z,56.21
2019-02-11T10:37:37.404Z,55.80
2019-02-11T10:40:06.726Z,54.59
2019-02-11T10:42:35.517Z,53.33
2019-02-11T10:45:04.448Z,50.82
2019-02-11T10:47:33.213Z,49.45
2019-02-11T10:50:01.955Z,48.14
2019-02-11T10:52:30.842Z,47.81
2019-02-11T10:54:59.583Z,46.78
2019-02-11T10:57:28.572Z,46.79
2019-02-11T10:59:57.314Z,47.41
2019-02-11T11:02:26.154Z,48.17
2019-02-11T11:04:54.924Z,49.27
2019-02-11T11:07:23.691Z,50.35
2019-02-11T11:09:52.431Z,51.47
2019-02-11T11:12:21.301Z,52.08
2019-02-11T11:14:50.049Z,53.53
2019-02-11T11:17:18.840Z,54.13
2019-02-11T11:19:47.671Z,54.44
2019-02-11T11:22:16.443Z,55.12
2019-02-11T11:24:45.194Z,55.51
2019-02-11T11:27:14.085Z,56.03
2019-02-11T11:29:42.832Z,56.23
2019-02-11T11:32:11.709Z,56.19
2019-02-11T11:34:40.458Z,56.25
2019-02-11T11:37:09.644Z,56.78
2019-02-11T11:39:38.398Z,57.12
2019-02-11T11:42:07.178Z,57.25
2019-02-11T11:44:35.991Z,57.15
2019-02-11T11:47:05.234Z,57.02
2019-02-11T11:49:34.071Z,56.98
2019-02-11T11:52:02.853Z,54.76
2019-02-11T11:54:31.670Z,54.03
2019-02-11T11:57:00.437Z,55.01
2019-02-11T11:59:29.180Z,55.37
2019-02-11T12:01:57.957Z,54.89
2019-02-11T12:04:26.697Z,54.70
2019-02-11T12:06:55.531Z,54.39
2019-02-11T12:09:24.420Z,54.08
2019-02-11T12:11:53.296Z,53.99
2019-02-11T12:14:22.066Z,53.86
2019-02-11T12:16:56.894Z,53.78
2019-02-11T12:19:21.326Z,53.61
2019-02-11T12:21:50.106Z,53.46
2019-02-11T12:24:19.025Z,53.38
2019-02-11T12:26:47.916Z,53.19
2019-02-11T12:29:16.725Z,53.08
2019-02-11T12:31:45.465Z,52.82
2019-02-11T12:34:14.272Z,52.73
2019-02-11T12:36:43.103Z,52.64
2019-02-11T12:39:11.871Z,52.31
2019-02-11T12:41:40.626Z,52.23
2019-02-11T12:44:09.634Z,52.34
2019-02-11T12:46:39.587Z,52.52
2019-02-11T12:49:08.437Z,52.27
2019-02-11T12:51:37.177Z,52.21
2019-02-11T12:54:06.001Z,52.59
2019-02-11T12:56:35.459Z,52.64
2019-02-11T12:59:06.754Z,52.77
2019-02-11T13:01:35.510Z,52.89
2019-02-11T13:04:04.489Z,52.96
2019-02-11T13:06:33.346Z,53.15
2019-02-11T13:09:02.346Z,53.22
2019-02-11T13:11:32.475Z,53.20
2019-02-11T13:14:01.252Z,53.13
2019-02-11T13:16:30.076Z,53.07
2019-02-11T13:18:59.157Z,52.97
2019-02-11T13:21:27.911Z,52.94
2019-02-11T13:23:56.680Z,52.88
2019-02-11T13:26:25.589Z,52.75
2019-02-11T13:28:54.434Z,52.59
2019-02-11T13:31:25.072Z,52.40
2019-02-11T13:33:53.886Z,52.44
2019-02-11T13:36:22.980Z,52.33
2019-02-11T13:38:51.862Z,52.18
2019-02-11T13:41:20.734Z,51.99
2019-02-11T13:43:51.485Z,51.87
2019-02-11T13:46:20.247Z,51.92
2019-02-11T13:48:51.085Z,52.12
2019-02-11T13:51:19.845Z,52.15
2019-02-11T13:53:48.606Z,52.26
2019-02-11T13:56:17.412Z,52.36
2019-02-11T13:58:46.271Z,52.48
2019-02-11T14:01:15.055Z,52.46
2019-02-11T14:03:43.823Z,52.24
2019-02-11T14:06:12.577Z,52.22
2019-02-11T14:08:41.346Z,52.07
2019-02-11T14:11:10.100Z,51.96
2019-02-11T14:13:38.912Z,51.76
2019-02-11T14:16:07.739Z,51.78
2019-02-11T14:18:36.490Z,51.83
2019-02-11T14:21:05.613Z,51.66
2019-02-11T14:23:34.424Z,51.73
2019-02-11T14:26:03.205Z,51.48
2019-02-11T14:28:32.005Z,51.50
2019-02-11T14:31:00.812Z,51.69
2019-02-11T14:33:29.629Z,51.80
2019-02-11T14:35:58.484Z,51.63
2019-02-11T14:38:27.435Z,51.48
2019-02-11T14:40:56.197Z,51.12
2019-02-11T14:43:24.940Z,51.02
2019-02-11T14:45:53.761Z,51.02
2019-02-11T14:48:27.835Z,50.91
2019-02-11T14:50:52.992Z,50.67
2019-02-11T14:53:21.805Z,50.21
2019-02-11T14:55:50.604Z,50.23
2019-02-11T14:58:19.423Z,50.38
2019-02-11T15:00:48.191Z,50.46
2019-02-11T15:03:17.324Z,50.73
2019-02-11T15:05:46.088Z,50.84
2019-02-11T15:08:14.898Z,51.09
2019-02-11T15:10:43.671Z,51.22
2019-02-11T15:13:12.462Z,51.22
2019-02-11T15:15:41.224Z,51.21
2019-02-11T15:18:09.960Z,51.19
2019-02-11T15:20:38.725Z,51.29
2019-02-11T15:23:07.464Z,51.11
2019-02-11T15:25:36.224Z,51.02
2019-02-11T15:28:05.039Z,51.37
2019-02-11T15:30:33.877Z,51.51
2019-02-11T15:33:02.710Z,51.74
2019-02-11T15:35:31.473Z,51.77
2019-02-11T15:38:00.301Z,51.86
2019-02-11T15:40:29.423Z,52.13
2019-02-11T15:42:58.161Z,52.02
2019-02-11T15:45:26.973Z,52.02
2019-02-11T15:47:55.757Z,52.08
2019-02-11T15:50:24.508Z,52.25
2019-02-11T15:52:53.273Z,52.05
2019-02-11T15:55:22.084Z,52.14
2019-02-11T15:57:51.012Z,52.30
2019-02-11T16:00:21.107Z,52.46
2019-02-11T16:02:51.587Z,52.59
2019-02-11T16:05:20.387Z,52.07
2019-02-11T16:07:50.237Z,52.28
2019-02-11T16:10:21.352Z,52.39
2019-02-11T16:12:50.224Z,52.49
2019-02-11T16:15:19.366Z,52.34
2019-02-11T16:17:48.293Z,52.24
2019-02-11T16:20:17.032Z,52.20
2019-02-11T16:22:45.874Z,52.28
2019-02-11T16:25:14.870Z,52.37
2019-02-11T16:27:43.652Z,52.38
2019-02-11T16:30:14.687Z,52.49
2019-02-11T16:32:43.450Z,52.42
2019-02-11T16:35:12.987Z,52.40
2019-02-11T16:37:41.817Z,52.31
2019-02-11T16:40:13.269Z,52.22
2019-02-11T16:42:42.033Z,52.31
2019-02-11T16:45:10.857Z,52.40
2019-02-11T16:47:39.624Z,52.42
2019-02-11T16:50:08.996Z,52.46
2019-02-11T16:52:37.828Z,52.50
2019-02-11T16:55:07.394Z,52.50
2019-02-11T16:57:36.174Z,52.53
2019-02-11T17:00:05.605Z,52.48
2019-02-11T17:02:34.437Z,52.58
2019-02-11T17:05:03.323Z,52.58
2019-02-11T17:07:32.251Z,52.58
2019-02-11T17:10:01.002Z,52.53
2019-02-11T17:12:29.794Z,52.40
2019-02-11T17:14:58.613Z,52.43
2019-02-11T17:17:27.448Z,52.29
2019-02-11T17:19:56.216Z,51.88
2019-02-11T17:22:25.045Z,51.78
2019-02-11T17:24:53.897Z,51.81
2019-02-11T17:27:22.670Z,51.53
2019-02-11T17:29:51.400Z,51.72
2019-02-11T17:32:20.169Z,52.05
2019-02-11T17:34:48.987Z,52.11
2019-02-11T17:37:17.822Z,52.19
2019-02-11T17:39:46.558Z,52.27
2019-02-11T17:42:15.326Z,52.32
2019-02-11T17:44:44.214Z,52.37
2019-02-11T17:47:13.045Z,52.41
2019-02-11T17:49:41.818Z,52.50
2019-02-11T17:52:11.373Z,52.51
2019-02-11T17:54:59.402Z,52.53
2019-02-11T17:57:28.170Z,52.56
2019-02-11T17:59:57.230Z,52.65
2019-02-11T18:02:26.003Z,52.52
2019-02-11T18:04:54.739Z,52.46
2019-02-11T18:07:23.487Z,52.32
2019-02-11T18:09:52.342Z,52.45
2019-02-11T18:12:21.107Z,52.50
2019-02-11T18:14:49.875Z,52.52
2019-02-11T18:17:18.789Z,52.31
2019-02-11T18:19:47.577Z,52.26
2019-02-11T18:22:16.348Z,52.44
2019-02-11T18:24:45.261Z,52.54
2019-02-11T18:27:14.074Z,52.53
2019-02-11T18:29:42.837Z,52.51
2019-02-11T18:32:11.653Z,52.45
2019-02-11T18:34:40.425Z,52.52
2019-02-11T18:37:09.158Z,52.45
2019-02-11T18:39:37.950Z,52.48
2019-02-11T18:42:06.835Z,52.51
2019-02-11T18:44:35.613Z,52.52
2019-02-11T18:47:04.348Z,52.51
2019-02-11T18:49:34.636Z,52.52
2019-02-11T18:52:02.754Z,52.55
2019-02-11T18:54:31.528Z,52.54
2019-02-11T18:57:00.349Z,52.47
2019-02-11T18:59:29.271Z,52.51
2019-02-11T19:01:58.020Z,52.53
2019-02-11T19:04:26.789Z,52.49
2019-02-11T19:06:55.673Z,52.47
2019-02-11T19:09:24.527Z,52.46
2019-02-11T19:11:53.286Z,52.43
2019-02-11T19:14:22.060Z,52.43
2019-02-11T19:16:50.801Z,52.43
2019-02-11T19:19:19.645Z,52.40
2019-02-11T19:21:48.460Z,52.37
2019-02-11T19:24:17.222Z,52.34
2019-02-11T19:26:46.182Z,52.32
2019-02-11T19:29:14.988Z,52.22
2019-02-11T19:31:43.730Z,52.13
2019-02-11T19:34:12.563Z,52.12
2019-02-11T19:36:41.353Z,52.13
2019-02-11T19:39:10.396Z,52.17
2019-02-11T19:41:39.309Z,52.12
2019-02-11T19:44:08.076Z,52.05
2019-02-11T19:46:36.918Z,52.05
2019-02-11T19:49:05.685Z,52.02
2019-02-11T19:51:34.435Z,51.99
2019-02-11T19:54:03.398Z,51.99
2019-02-11T19:56:32.291Z,52.00
2019-02-11T19:59:01.056Z,51.97
2019-02-11T20:01:29.901Z,51.90
2019-02-11T20:04:07.067Z,51.85
2019-02-11T20:06:29.245Z,51.87
2019-02-11T20:08:57.999Z,51.88
2019-02-11T20:11:26.769Z,51.85
2019-02-11T20:13:55.530Z,51.79
2019-02-11T20:16:24.305Z,51.81
2019-02-11T20:18:53.138Z,51.85
2019-02-11T20:21:21.841Z,51.84
2019-02-11T20:23:50.585Z,51.84
2019-02-11T20:26:19.381Z,51.83
2019-02-11T20:28:48.125Z,51.84
2019-02-11T20:31:16.894Z,51.79
2019-02-11T20:33:45.801Z,51.77
2019-02-11T20:36:14.645Z,51.75
2019-02-11T20:38:43.385Z,51.79
2019-02-11T20:41:12.144Z,51.79
2019-02-11T20:43:40.889Z,51.72
2019-02-11T20:46:09.721Z,51.69
2019-02-11T20:48:38.786Z,51.71
2019-02-11T20:51:07.616Z,51.67
2019-02-11T20:53:36.425Z,51.66
2019-02-11T20:56:05.196Z,51.44
2019-02-11T20:58:33.925Z,51.50
2019-02-11T21:01:02.995Z,51.60
2019-02-11T21:03:31.789Z,51.72
2019-02-11T21:06:00.554Z,51.76
2019-02-11T21:08:29.291Z,51.81
2019-02-11T21:10:58.362Z,51.83
2019-02-11T21:13:27.139Z,51.82
2019-02-11T21:15:55.898Z,51.84
2019-02-11T21:18:24.707Z,51.82
2019-02-11T21:20:53.595Z,51.80
2019-02-11T21:23:22.430Z,51.79
2019-02-11T21:25:51.193Z,51.78
2019-02-11T21:28:19.945Z,51.68
2019-02-11T21:30:48.689Z,51.59
2019-02-11T21:33:17.449Z,51.60
2019-02-11T21:35:46.278Z,51.68
2019-02-11T21:38:15.041Z,51.71
2019-02-11T21:40:43.778Z,51.76
2019-02-11T21:43:12.537Z,51.75
2019-02-11T21:45:41.276Z,51.77
2019-02-11T21:48:10.048Z,51.76
2019-02-11T21:50:38.784Z,51.75
2019-02-11T21:53:07.544Z,51.76
2019-02-11T21:55:55.561Z,51.75
2019-02-11T21:58:24.325Z,51.70
2019-02-11T22:00:56.805Z,51.68
2019-02-11T22:03:22.758Z,51.62
2019-02-11T22:05:51.551Z,51.60
2019-02-11T22:08:20.282Z,51.59
2019-02-11T22:10:49.101Z,51.58
2019-02-11T22:13:17.889Z,51.59
2019-02-11T22:15:46.625Z,51.53
2019-02-11T22:18:15.392Z,51.51
2019-02-11T22:20:44.126Z,51.46
2019-02-11T22:23:12.957Z,51.44
2019-02-11T22:25:41.699Z,51.44
2019-02-11T22:28:10.543Z,51.46
2019-02-11T22:30:39.277Z,51.51
2019-02-11T22:33:08.136Z,51.57
2019-02-11T22:35:36.871Z,51.57
2019-02-11T22:38:05.714Z,51.51
2019-02-11T22:40:34.526Z,51.52
2019-02-11T22:43:03.363Z,51.49
2019-02-11T22:45:32.100Z,51.46
2019-02-11T22:48:00.900Z,51.48
2019-02-11T22:50:29.631Z,51.50
2019-02-11T22:52:58.393Z,51.48
2019-02-11T22:55:27.200Z,51.54
2019-02-11T22:57:55.957Z,51.52
2019-02-11T23:00:39.963Z,51.52
2019-02-11T23:03:08.794Z,51.48
2019-02-11T23:05:37.605Z,51.41
2019-02-11T23:08:06.366Z,51.43
2019-02-11T23:10:35.178Z,51.35
2019-02-11T23:13:04.037Z,51.26
2019-02-11T23:15:32.917Z,51.19
2019-02-11T23:18:01.692Z,51.19
2019-02-11T23:20:30.501Z,51.23
2019-02-11T23:22:59.341Z,51.23
2019-02-11T23:25:28.095Z,51.24
2019-02-11T23:27:56.842Z,51.28
2019-02-11T23:30:25.674Z,51.31
2019-02-11T23:32:54.418Z,51.31
2019-02-11T23:35:23.188Z,51.29
2019-02-11T23:37:51.926Z,51.25
2019-02-11T23:40:20.759Z,51.27
2019-02-11T23:42:49.637Z,51.26
2019-02-11T23:45:18.397Z,51.23
2019-02-11T23:47:47.215Z,51.20
2019-02-11T23:50:15.973Z,51.14
2019-02-11T23:52:44.705Z,51.10
2019-02-11T23:55:13.469Z,51.07
2019-02-11T23:57:42.211Z,51.09
